sensor_id;sensor_type;location;lat;lon;timestamp;noise_LAeq;noise_LA_min;noise_LA_max;noise_LA01;noise_LA95
64077;Laerm;51039;49.696;10.808;2023-01-04T00:01:15;36.18;35.04;37.44;;
64077;Laerm;51039;49.696;10.808;2023-01-04T00:03:40;36.17;35.04;37.50;;
64077;Laerm;51039;49.696;10.808;2023-01-04T00:06:07;36.17;35.14;37.28;;
64077;Laerm;51039;49.696;10.808;2023-01-04T00:08:34;36.15;35.06;37.27;;
64077;Laerm;51039;49.696;10.808;2023-01-04T00:11:20;36.14;34.95;37.21;;
64077;Laerm;51039;49.696;10.808;2023-01-04T00:13:47;36.09;34.85;37.52;;
64077;Laerm;51039;49.696;10.808;2023-01-04T00:16:16;36.05;35.07;37.28;;
64077;Laerm;51039;49.696;10.808;2023-01-04T00:18:42;36.03;34.76;37.17;;
64077;Laerm;51039;49.696;10.808;2023-01-04T00:23:37;35.96;34.65;37.07;;
64077;Laerm;51039;49.696;10.808;2023-01-04T00:26:06;35.92;34.66;37.14;;
64077;Laerm;51039;49.696;10.808;2023-01-04T00:28:32;35.89;34.58;36.92;;
64077;Laerm;51039;49.696;10.808;2023-01-04T00:31:01;35.85;34.80;36.96;;
64077;Laerm;51039;49.696;10.808;2023-01-04T00:33:27;35.82;34.29;36.93;;
64077;Laerm;51039;49.696;10.808;2023-01-04T00:35:52;35.80;34.63;36.82;;
64077;Laerm;51039;49.696;10.808;2023-01-04T00:38:17;35.80;34.65;36.92;;
64077;Laerm;51039;49.696;10.808;2023-01-04T00:40:43;35.77;34.45;37.01;;
64077;Laerm;51039;49.696;10.808;2023-01-04T00:43:08;35.76;34.50;36.89;;
64077;Laerm;51039;49.696;10.808;2023-01-04T00:45:33;35.74;34.56;37.06;;
64077;Laerm;51039;49.696;10.808;2023-01-04T00:47:58;35.73;34.50;36.88;;
64077;Laerm;51039;49.696;10.808;2023-01-04T00:50:24;35.70;34.54;36.81;;
64077;Laerm;51039;49.696;10.808;2023-01-04T00:52:49;35.69;34.54;36.95;;
64077;Laerm;51039;49.696;10.808;2023-01-04T00:55:14;35.67;34.30;36.76;;
64077;Laerm;51039;49.696;10.808;2023-01-04T00:57:39;35.66;34.55;36.84;;
64077;Laerm;51039;49.696;10.808;2023-01-04T01:00:05;35.62;34.46;36.73;;
64077;Laerm;51039;49.696;10.808;2023-01-04T01:02:31;35.59;34.27;36.67;;
64077;Laerm;51039;49.696;10.808;2023-01-04T01:04:56;35.57;34.14;36.63;;
64077;Laerm;51039;49.696;10.808;2023-01-04T01:07:21;35.55;34.46;36.65;;
64077;Laerm;51039;49.696;10.808;2023-01-04T01:09:47;35.53;34.33;36.66;;
64077;Laerm;51039;49.696;10.808;2023-01-04T01:12:12;35.52;34.30;36.52;;
64077;Laerm;51039;49.696;10.808;2023-01-04T01:14:37;35.50;34.42;36.59;;
64077;Laerm;51039;49.696;10.808;2023-01-04T01:17:02;35.47;34.12;36.64;;
64077;Laerm;51039;49.696;10.808;2023-01-04T01:19:28;35.44;34.29;36.65;;
64077;Laerm;51039;49.696;10.808;2023-01-04T01:21:54;35.42;34.23;36.72;;
64077;Laerm;51039;49.696;10.808;2023-01-04T01:24:21;35.40;34.17;36.49;;
64077;Laerm;51039;49.696;10.808;2023-01-04T01:26:46;35.37;34.16;36.47;;
64077;Laerm;51039;49.696;10.808;2023-01-04T01:29:11;35.37;34.31;36.54;;
64077;Laerm;51039;49.696;10.808;2023-01-04T01:31:37;35.35;34.16;36.47;;
64077;Laerm;51039;49.696;10.808;2023-01-04T01:34:02;35.32;34.09;36.42;;
64077;Laerm;51039;49.696;10.808;2023-01-04T01:36:27;35.28;33.95;36.45;;
64077;Laerm;51039;49.696;10.808;2023-01-04T01:38:53;35.23;34.05;36.25;;
64077;Laerm;51039;49.696;10.808;2023-01-04T01:41:20;35.20;33.90;36.28;;
64077;Laerm;51039;49.696;10.808;2023-01-04T01:49:32;35.08;33.84;36.34;;
64077;Laerm;51039;49.696;10.808;2023-01-04T01:52:03;35.04;33.86;36.26;;
64077;Laerm;51039;49.696;10.808;2023-01-04T01:54:43;35.00;33.70;36.04;;
64077;Laerm;51039;49.696;10.808;2023-01-04T01:57:13;34.96;33.68;36.07;;
64077;Laerm;51039;49.696;10.808;2023-01-04T01:59:41;34.93;33.81;36.02;;
64077;Laerm;51039;49.696;10.808;2023-01-04T02:02:09;34.92;33.80;36.35;;
64077;Laerm;51039;49.696;10.808;2023-01-04T02:04:37;34.90;33.82;36.10;;
64077;Laerm;51039;49.696;10.808;2023-01-04T02:07:03;34.88;33.61;35.95;;
64077;Laerm;51039;49.696;10.808;2023-01-04T02:09:30;34.86;33.76;36.06;;
64077;Laerm;51039;49.696;10.808;2023-01-04T02:11:56;34.80;33.56;36.07;;
64077;Laerm;51039;49.696;10.808;2023-01-04T02:14:21;34.79;33.35;35.86;;
64077;Laerm;51039;49.696;10.808;2023-01-04T02:17:10;34.74;33.54;35.91;;
64077;Laerm;51039;49.696;10.808;2023-01-04T02:31:25;34.64;33.40;35.84;;
64077;Laerm;51039;49.696;10.808;2023-01-04T02:37:07;34.58;33.54;35.84;;
64077;Laerm;51039;49.696;10.808;2023-01-04T02:39:35;34.57;33.29;35.66;;
64077;Laerm;51039;49.696;10.808;2023-01-04T02:42:11;34.54;33.20;35.76;;
64077;Laerm;51039;49.696;10.808;2023-01-04T02:47:21;34.49;33.42;35.64;;
64077;Laerm;51039;49.696;10.808;2023-01-04T02:50:33;34.47;33.14;35.58;;
64077;Laerm;51039;49.696;10.808;2023-01-04T02:53:13;34.44;33.32;35.60;;
64077;Laerm;51039;49.696;10.808;2023-01-04T02:55:43;34.42;33.11;35.38;;
64077;Laerm;51039;49.696;10.808;2023-01-04T02:58:31;34.41;33.30;35.46;;
64077;Laerm;51039;49.696;10.808;2023-01-04T03:04:29;34.37;33.06;35.46;;
64077;Laerm;51039;49.696;10.808;2023-01-04T03:07:34;34.35;33.21;35.59;;
64077;Laerm;51039;49.696;10.808;2023-01-04T03:10:08;34.32;33.10;35.40;;
64077;Laerm;51039;49.696;10.808;2023-01-04T03:12:42;34.28;33.07;35.37;;
64077;Laerm;51039;49.696;10.808;2023-01-04T03:15:27;34.26;33.04;35.51;;
64077;Laerm;51039;49.696;10.808;2023-01-04T03:17:58;34.23;32.86;35.21;;
64077;Laerm;51039;49.696;10.808;2023-01-04T03:20:28;34.22;33.21;35.32;;
64077;Laerm;51039;49.696;10.808;2023-01-04T03:22:58;34.21;33.11;35.26;;
64077;Laerm;51039;49.696;10.808;2023-01-04T03:25:45;34.20;33.06;35.28;;
64077;Laerm;51039;49.696;10.808;2023-01-04T03:28:35;34.20;32.99;35.18;;
64077;Laerm;51039;49.696;10.808;2023-01-04T03:31:26;34.17;32.98;35.26;;
64077;Laerm;51039;49.696;10.808;2023-01-04T03:34:13;34.17;32.79;35.28;;
64077;Laerm;51039;49.696;10.808;2023-01-04T03:37:06;34.17;32.99;35.21;;
64077;Laerm;51039;49.696;10.808;2023-01-04T03:42:32;34.16;32.96;35.24;;
64077;Laerm;51039;49.696;10.808;2023-01-04T03:45:22;34.13;32.95;35.37;;
64077;Laerm;51039;49.696;10.808;2023-01-04T03:53:37;34.05;32.62;35.13;;
64077;Laerm;51039;49.696;10.808;2023-01-04T03:56:06;34.02;32.89;36.10;;
64077;Laerm;51039;49.696;10.808;2023-01-04T03:58:33;33.95;32.77;39.90;;
64077;Laerm;51039;49.696;10.808;2023-01-04T04:01:01;33.93;32.80;35.18;;
64077;Laerm;51039;49.696;10.808;2023-01-04T04:03:28;33.90;32.73;35.10;;
64077;Laerm;51039;49.696;10.808;2023-01-04T04:06:12;33.87;32.62;34.98;;
64077;Laerm;51039;49.696;10.808;2023-01-04T04:08:56;33.86;32.61;35.09;;
64077;Laerm;51039;49.696;10.808;2023-01-04T04:11:22;33.84;32.80;34.86;;
64077;Laerm;51039;49.696;10.808;2023-01-04T04:13:57;33.82;32.59;34.86;;
64077;Laerm;51039;49.696;10.808;2023-01-04T04:16:23;33.80;32.67;34.97;;
64077;Laerm;51039;49.696;10.808;2023-01-04T04:18:49;33.78;32.62;34.74;;
64077;Laerm;51039;49.696;10.808;2023-01-04T04:21:14;33.75;32.34;34.83;;
64077;Laerm;51039;49.696;10.808;2023-01-04T04:23:39;33.74;32.52;34.73;;
64077;Laerm;51039;49.696;10.808;2023-01-04T04:26:05;33.71;32.32;34.68;;
64077;Laerm;51039;49.696;10.808;2023-01-04T04:28:30;33.70;32.66;34.71;;
64077;Laerm;51039;49.696;10.808;2023-01-04T04:30:55;33.69;32.32;34.82;;
64077;Laerm;51039;49.696;10.808;2023-01-04T04:33:21;33.68;32.43;34.77;;
64077;Laerm;51039;49.696;10.808;2023-01-04T04:35:53;33.67;32.52;34.68;;
64077;Laerm;51039;49.696;10.808;2023-01-04T04:38:19;33.64;32.34;34.63;;
64077;Laerm;51039;49.696;10.808;2023-01-04T04:40:45;33.62;32.29;34.79;;
64077;Laerm;51039;49.696;10.808;2023-01-04T04:43:31;33.61;32.36;35.05;;
64077;Laerm;51039;49.696;10.808;2023-01-04T04:45:56;33.56;32.49;34.61;;
64077;Laerm;51039;49.696;10.808;2023-01-04T04:48:22;33.55;32.20;34.78;;
64077;Laerm;51039;49.696;10.808;2023-01-04T04:50:47;33.53;32.24;34.65;;
64077;Laerm;51039;49.696;10.808;2023-01-04T04:53:12;33.52;32.14;34.60;;
64077;Laerm;51039;49.696;10.808;2023-01-04T04:55:38;33.51;32.26;34.52;;
64077;Laerm;51039;49.696;10.808;2023-01-04T04:58:03;33.50;32.09;34.61;;
64077;Laerm;51039;49.696;10.808;2023-01-04T05:00:28;33.50;32.30;34.58;;
64077;Laerm;51039;49.696;10.808;2023-01-04T05:02:57;33.48;32.32;34.56;;
64077;Laerm;51039;49.696;10.808;2023-01-04T05:05:22;33.48;32.30;34.48;;
64077;Laerm;51039;49.696;10.808;2023-01-04T05:07:48;33.47;32.32;34.56;;
64077;Laerm;51039;49.696;10.808;2023-01-04T05:10:13;33.46;32.29;34.53;;
64077;Laerm;51039;49.696;10.808;2023-01-04T05:12:38;33.46;32.32;34.47;;
64077;Laerm;51039;49.696;10.808;2023-01-04T05:15:22;33.46;32.29;34.43;;
64077;Laerm;51039;49.696;10.808;2023-01-04T05:17:47;33.46;32.09;34.55;;
64077;Laerm;51039;49.696;10.808;2023-01-04T05:20:13;33.44;32.23;34.63;;
64077;Laerm;51039;49.696;10.808;2023-01-04T05:22:38;33.44;32.20;34.51;;
64077;Laerm;51039;49.696;10.808;2023-01-04T05:25:05;33.42;32.29;34.85;;
64077;Laerm;51039;49.696;10.808;2023-01-04T05:27:32;33.39;32.30;34.46;;
64077;Laerm;51039;49.696;10.808;2023-01-04T05:29:57;33.38;32.15;34.63;;
64077;Laerm;51039;49.696;10.808;2023-01-04T05:32:41;33.38;32.29;34.52;;
64077;Laerm;51039;49.696;10.808;2023-01-04T05:35:07;33.37;32.27;34.72;;
64077;Laerm;51039;49.696;10.808;2023-01-04T05:37:32;33.36;31.90;34.36;;
64077;Laerm;51039;49.696;10.808;2023-01-04T05:39:57;33.35;32.24;34.31;;
64077;Laerm;51039;49.696;10.808;2023-01-04T05:42:23;33.32;32.15;34.27;;
64077;Laerm;51039;49.696;10.808;2023-01-04T05:44:54;33.31;32.06;34.36;;
64077;Laerm;51039;49.696;10.808;2023-01-04T05:47:20;33.30;31.97;34.47;;
64077;Laerm;51039;49.696;10.808;2023-01-04T05:49:45;33.29;32.13;34.35;;
64077;Laerm;51039;49.696;10.808;2023-01-04T05:52:11;33.28;32.10;34.85;;
64077;Laerm;51039;49.696;10.808;2023-01-04T05:54:36;33.26;32.01;34.43;;
64077;Laerm;51039;49.696;10.808;2023-01-04T05:57:01;33.25;32.07;34.32;;
64077;Laerm;51039;49.696;10.808;2023-01-04T05:59:27;33.26;31.91;34.39;;
64077;Laerm;51039;49.696;10.808;2023-01-04T06:01:52;33.24;31.93;34.32;;
64077;Laerm;51039;49.696;10.808;2023-01-04T06:04:17;33.23;32.07;34.40;;
64077;Laerm;51039;49.696;10.808;2023-01-04T06:06:44;33.23;31.91;34.42;;
64077;Laerm;51039;49.696;10.808;2023-01-04T06:09:09;33.21;32.08;34.38;;
64077;Laerm;51039;49.696;10.808;2023-01-04T06:11:34;33.19;32.00;34.27;;
64077;Laerm;51039;49.696;10.808;2023-01-04T06:14:00;33.20;32.05;34.29;;
64077;Laerm;51039;49.696;10.808;2023-01-04T06:16:25;33.19;32.06;34.39;;
64077;Laerm;51039;49.696;10.808;2023-01-04T06:18:50;33.19;32.05;34.33;;
64077;Laerm;51039;49.696;10.808;2023-01-04T06:21:15;33.17;31.93;34.20;;
64077;Laerm;51039;49.696;10.808;2023-01-04T06:23:41;33.17;31.93;34.56;;
64077;Laerm;51039;49.696;10.808;2023-01-04T06:26:06;33.19;31.90;34.19;;
64077;Laerm;51039;49.696;10.808;2023-01-04T06:28:31;33.19;31.88;34.31;;
64077;Laerm;51039;49.696;10.808;2023-01-04T06:30:57;33.20;32.15;34.29;;
64077;Laerm;51039;49.696;10.808;2023-01-04T06:33:22;33.20;31.99;34.31;;
64077;Laerm;51039;49.696;10.808;2023-01-04T06:35:54;33.22;32.04;34.28;;
64077;Laerm;51039;49.696;10.808;2023-01-04T06:38:20;33.24;31.99;34.26;;
64077;Laerm;51039;49.696;10.808;2023-01-04T06:40:45;33.26;32.07;34.34;;
64077;Laerm;51039;49.696;10.808;2023-01-04T06:43:10;33.29;32.03;34.36;;
64077;Laerm;51039;49.696;10.808;2023-01-04T06:45:35;33.32;32.09;34.41;;
64077;Laerm;51039;49.696;10.808;2023-01-04T06:48:01;33.36;32.21;34.47;;
64077;Laerm;51039;49.696;10.808;2023-01-04T06:50:26;33.39;32.16;34.48;;
64077;Laerm;51039;49.696;10.808;2023-01-04T06:52:51;33.43;32.24;34.51;;
64077;Laerm;51039;49.696;10.808;2023-01-04T06:55:16;33.48;32.37;34.49;;
64077;Laerm;51039;49.696;10.808;2023-01-04T06:57:42;33.53;32.51;34.55;;
64077;Laerm;51039;49.696;10.808;2023-01-04T07:00:07;33.58;32.41;34.67;;
64077;Laerm;51039;49.696;10.808;2023-01-04T07:02:34;33.64;32.17;34.77;;
64077;Laerm;51039;49.696;10.808;2023-01-04T07:04:59;33.74;32.44;34.86;;
64077;Laerm;51039;49.696;10.808;2023-01-04T07:07:25;33.81;32.54;34.93;;
64077;Laerm;51039;49.696;10.808;2023-01-04T07:09:50;33.95;32.86;34.99;;
64077;Laerm;51039;49.696;10.808;2023-01-04T07:12:15;34.07;32.93;35.39;;
64077;Laerm;51039;49.696;10.808;2023-01-04T07:14:40;34.23;32.96;35.17;;
64077;Laerm;51039;49.696;10.808;2023-01-04T07:17:06;34.44;33.35;35.43;;
64077;Laerm;51039;49.696;10.808;2023-01-04T07:19:31;34.63;33.48;35.77;;
64077;Laerm;51039;49.696;10.808;2023-01-04T07:21:57;34.85;33.48;35.92;;
64077;Laerm;51039;49.696;10.808;2023-01-04T07:24:23;35.09;33.82;36.17;;
64077;Laerm;51039;49.696;10.808;2023-01-04T07:26:49;35.37;34.04;36.57;;
64077;Laerm;51039;49.696;10.808;2023-01-04T07:29:14;35.65;34.36;36.82;;
64077;Laerm;51039;49.696;10.808;2023-01-04T07:31:47;35.96;34.59;37.14;;
64077;Laerm;51039;49.696;10.808;2023-01-04T07:34:14;36.27;35.02;37.48;;
64077;Laerm;51039;49.696;10.808;2023-01-04T07:36:40;36.57;35.29;37.71;;
64077;Laerm;51039;49.696;10.808;2023-01-04T07:39:06;36.86;35.53;37.89;;
64077;Laerm;51039;49.696;10.808;2023-01-04T07:41:34;37.12;35.92;38.28;;
64077;Laerm;51039;49.696;10.808;2023-01-04T07:43:59;37.38;36.17;38.55;;
64077;Laerm;51039;49.696;10.808;2023-01-04T07:46:25;37.62;36.24;38.82;;
64077;Laerm;51039;49.696;10.808;2023-01-04T07:48:51;37.88;36.51;38.92;;
64077;Laerm;51039;49.696;10.808;2023-01-04T07:51:17;38.10;36.65;39.39;;
64077;Laerm;51039;49.696;10.808;2023-01-04T07:53:42;38.31;37.02;39.37;;
64077;Laerm;51039;49.696;10.808;2023-01-04T07:56:07;38.51;37.19;39.79;;
64077;Laerm;51039;49.696;10.808;2023-01-04T07:58:33;38.71;37.47;39.92;;
64077;Laerm;51039;49.696;10.808;2023-01-04T08:01:13;38.89;37.56;40.01;;
64077;Laerm;51039;49.696;10.808;2023-01-04T08:03:40;39.03;37.61;40.09;;
64077;Laerm;51039;49.696;10.808;2023-01-04T08:06:08;39.14;37.82;40.33;;
64077;Laerm;51039;49.696;10.808;2023-01-04T08:08:34;39.26;37.93;40.41;;
64077;Laerm;51039;49.696;10.808;2023-01-04T08:11:00;39.34;38.06;40.42;;
64077;Laerm;51039;49.696;10.808;2023-01-04T08:13:25;39.41;38.06;40.50;;
64077;Laerm;51039;49.696;10.808;2023-01-04T08:15:52;39.48;38.37;40.70;;
64077;Laerm;51039;49.696;10.808;2023-01-04T08:18:17;39.51;38.35;40.86;;
64077;Laerm;51039;49.696;10.808;2023-01-04T08:20:42;39.58;38.10;40.83;;
64077;Laerm;51039;49.696;10.808;2023-01-04T08:23:08;39.61;38.50;40.58;;
64077;Laerm;51039;49.696;10.808;2023-01-04T08:25:33;39.69;38.51;40.80;;
64077;Laerm;51039;49.696;10.808;2023-01-04T08:27:58;39.73;38.57;40.96;;
64077;Laerm;51039;49.696;10.808;2023-01-04T08:30:24;39.79;38.37;40.88;;
64077;Laerm;51039;49.696;10.808;2023-01-04T08:32:49;39.84;38.64;40.84;;
64077;Laerm;51039;49.696;10.808;2023-01-04T08:35:14;39.90;38.63;41.19;;
64077;Laerm;51039;49.696;10.808;2023-01-04T08:37:39;39.96;38.77;41.12;;
64077;Laerm;51039;49.696;10.808;2023-01-04T08:40:05;40.02;38.59;41.19;;
64077;Laerm;51039;49.696;10.808;2023-01-04T08:42:31;40.08;38.94;41.45;;
64077;Laerm;51039;49.696;10.808;2023-01-04T08:44:56;40.13;38.99;41.28;;
64077;Laerm;51039;49.696;10.808;2023-01-04T08:47:22;40.20;38.87;41.35;;
64077;Laerm;51039;49.696;10.808;2023-01-04T08:49:48;40.26;39.10;41.35;;
64077;Laerm;51039;49.696;10.808;2023-01-04T08:52:13;40.30;38.97;41.46;;
64077;Laerm;51039;49.696;10.808;2023-01-04T08:54:40;40.32;38.68;41.49;;
64077;Laerm;51039;49.696;10.808;2023-01-04T08:57:05;40.34;38.97;41.45;;
64077;Laerm;51039;49.696;10.808;2023-01-04T08:59:30;40.35;39.00;41.58;;
64077;Laerm;51039;49.696;10.808;2023-01-04T09:01:55;40.37;39.21;41.69;;
64077;Laerm;51039;49.696;10.808;2023-01-04T09:04:21;40.43;39.13;41.67;;
64077;Laerm;51039;49.696;10.808;2023-01-04T09:06:46;40.44;39.00;41.65;;
64077;Laerm;51039;49.696;10.808;2023-01-04T09:09:11;40.44;39.15;41.63;;
64077;Laerm;51039;49.696;10.808;2023-01-04T09:11:38;40.43;39.02;41.60;;
64077;Laerm;51039;49.696;10.808;2023-01-04T09:14:03;40.43;39.15;41.77;;
64077;Laerm;51039;49.696;10.808;2023-01-04T09:16:29;40.43;39.21;41.59;;
64077;Laerm;51039;49.696;10.808;2023-01-04T09:18:54;40.43;39.13;41.62;;
64077;Laerm;51039;49.696;10.808;2023-01-04T09:21:21;40.42;39.19;41.52;;
64077;Laerm;51039;49.696;10.808;2023-01-04T09:23:47;40.41;39.03;41.64;;
64077;Laerm;51039;49.696;10.808;2023-01-04T09:26:18;40.40;38.93;41.65;;
64077;Laerm;51039;49.696;10.808;2023-01-04T09:28:45;40.38;39.01;41.73;;
64077;Laerm;51039;49.696;10.808;2023-01-04T09:31:14;40.38;38.96;41.65;;
64077;Laerm;51039;49.696;10.808;2023-01-04T09:33:41;40.37;38.75;41.66;;
64077;Laerm;51039;49.696;10.808;2023-01-04T09:36:09;40.36;39.08;41.83;;
64077;Laerm;51039;49.696;10.808;2023-01-04T09:38:35;40.35;38.88;41.50;;
64077;Laerm;51039;49.696;10.808;2023-01-04T09:41:13;40.32;39.07;41.41;;
64077;Laerm;51039;49.696;10.808;2023-01-04T09:43:55;40.27;38.98;41.58;;
64077;Laerm;51039;49.696;10.808;2023-01-04T09:46:41;40.25;38.88;41.58;;
64077;Laerm;51039;49.696;10.808;2023-01-04T09:49:18;40.20;38.87;41.42;;
64077;Laerm;51039;49.696;10.808;2023-01-04T09:51:59;40.17;38.77;41.56;;
64077;Laerm;51039;49.696;10.808;2023-01-04T09:54:32;40.16;38.79;41.38;;
64077;Laerm;51039;49.696;10.808;2023-01-04T09:56:59;40.13;38.70;41.46;;
64077;Laerm;51039;49.696;10.808;2023-01-04T09:59:30;40.11;38.64;41.43;;
64077;Laerm;51039;49.696;10.808;2023-01-04T10:02:30;40.09;38.74;41.32;;
64077;Laerm;51039;49.696;10.808;2023-01-04T10:05:00;40.09;38.73;41.70;;
64077;Laerm;51039;49.696;10.808;2023-01-04T10:07:35;40.06;38.41;41.45;;
64077;Laerm;51039;49.696;10.808;2023-01-04T10:10:00;40.06;38.56;41.28;;
64077;Laerm;51039;49.696;10.808;2023-01-04T10:12:32;40.03;38.38;41.39;;
64077;Laerm;51039;49.696;10.808;2023-01-04T10:15:13;40.02;38.72;41.23;;
64077;Laerm;51039;49.696;10.808;2023-01-04T10:23:07;39.95;38.65;41.30;;
64077;Laerm;51039;49.696;10.808;2023-01-04T10:29:27;39.91;38.44;41.10;;
64077;Laerm;51039;49.696;10.808;2023-01-04T10:32:18;39.89;38.52;41.11;;
64077;Laerm;51039;49.696;10.808;2023-01-04T10:34:47;39.88;38.32;41.06;;
64077;Laerm;51039;49.696;10.808;2023-01-04T10:37:31;39.86;38.39;41.43;;
64077;Laerm;51039;49.696;10.808;2023-01-04T10:39:57;39.86;38.53;41.26;;
64077;Laerm;51039;49.696;10.808;2023-01-04T10:42:34;39.83;38.23;41.22;;
64077;Laerm;51039;49.696;10.808;2023-01-04T10:45:16;39.83;38.24;40.99;;
64077;Laerm;51039;49.696;10.808;2023-01-04T10:48:07;39.82;38.40;41.14;;
64077;Laerm;51039;49.696;10.808;2023-01-04T10:50:40;39.83;38.34;41.12;;
64077;Laerm;51039;49.696;10.808;2023-01-04T10:53:22;39.84;38.51;41.18;;
64077;Laerm;51039;49.696;10.808;2023-01-04T10:56:04;39.83;38.41;41.25;;
64077;Laerm;51039;49.696;10.808;2023-01-04T10:58:39;39.85;38.45;41.17;;
64077;Laerm;51039;49.696;10.808;2023-01-04T11:01:16;39.87;38.44;41.16;;
64077;Laerm;51039;49.696;10.808;2023-01-04T11:03:58;39.85;38.59;41.24;;
64077;Laerm;51039;49.696;10.808;2023-01-04T11:06:34;39.87;38.29;41.15;;
64077;Laerm;51039;49.696;10.808;2023-01-04T11:09:32;39.88;38.43;41.09;;
64077;Laerm;51039;49.696;10.808;2023-01-04T11:11:59;39.91;38.25;41.17;;
64077;Laerm;51039;49.696;10.808;2023-01-04T11:14:27;39.94;38.68;41.26;;
64077;Laerm;51039;49.696;10.808;2023-01-04T11:16:57;39.93;38.68;41.52;;
64077;Laerm;51039;49.696;10.808;2023-01-04T11:19:23;39.97;38.51;41.30;;
64077;Laerm;51039;49.696;10.808;2023-01-04T11:21:53;39.95;38.57;41.09;;
64077;Laerm;51039;49.696;10.808;2023-01-04T11:24:28;39.95;38.51;41.07;;
64077;Laerm;51039;49.696;10.808;2023-01-04T11:26:55;39.97;38.75;41.23;;
64077;Laerm;51039;49.696;10.808;2023-01-04T11:29:47;39.97;38.56;41.34;;
64077;Laerm;51039;49.696;10.808;2023-01-04T11:32:34;39.97;38.49;41.31;;
64077;Laerm;51039;49.696;10.808;2023-01-04T11:35:03;39.97;38.01;41.41;;
64077;Laerm;51039;49.696;10.808;2023-01-04T11:37:31;39.96;38.57;41.26;;
64077;Laerm;51039;49.696;10.808;2023-01-04T11:42:41;39.97;38.73;41.21;;
64077;Laerm;51039;49.696;10.808;2023-01-04T11:45:20;39.96;38.64;41.37;;
64077;Laerm;51039;49.696;10.808;2023-01-04T11:47:51;39.96;38.52;41.27;;
64077;Laerm;51039;49.696;10.808;2023-01-04T11:50:44;39.96;38.44;41.27;;
64077;Laerm;51039;49.696;10.808;2023-01-04T11:56:10;39.95;38.70;41.19;;
64077;Laerm;51039;49.696;10.808;2023-01-04T11:58:37;39.94;38.52;41.24;;
64077;Laerm;51039;49.696;10.808;2023-01-04T12:01:02;39.95;38.31;41.18;;
64077;Laerm;51039;49.696;10.808;2023-01-04T12:03:30;39.96;38.50;41.20;;
64077;Laerm;51039;49.696;10.808;2023-01-04T12:05:57;39.94;38.34;41.10;;
64077;Laerm;51039;49.696;10.808;2023-01-04T12:08:33;39.93;38.55;41.19;;
64077;Laerm;51039;49.696;10.808;2023-01-04T12:11:02;39.92;38.60;41.19;;
64077;Laerm;51039;49.696;10.808;2023-01-04T12:13:28;39.92;38.49;41.32;;
64077;Laerm;51039;49.696;10.808;2023-01-04T12:16:06;39.92;38.48;41.24;;
64077;Laerm;51039;49.696;10.808;2023-01-04T12:18:43;39.94;38.44;41.44;;
64077;Laerm;51039;49.696;10.808;2023-01-04T12:21:22;39.92;38.62;41.31;;
64077;Laerm;51039;49.696;10.808;2023-01-04T12:23:49;39.91;38.33;41.08;;
64077;Laerm;51039;49.696;10.808;2023-01-04T12:26:16;39.90;38.68;41.18;;
64077;Laerm;51039;49.696;10.808;2023-01-04T12:28:44;39.90;38.31;41.16;;
64077;Laerm;51039;49.696;10.808;2023-01-04T12:33:52;39.88;38.51;41.22;;
64077;Laerm;51039;49.696;10.808;2023-01-04T12:36:21;39.89;38.49;41.04;;
64077;Laerm;51039;49.696;10.808;2023-01-04T12:52:44;39.90;38.58;41.36;;
64077;Laerm;51039;49.696;10.808;2023-01-04T12:55:26;39.90;38.49;41.20;;
64077;Laerm;51039;49.696;10.808;2023-01-04T13:05:58;39.95;38.46;41.21;;
64077;Laerm;51039;49.696;10.808;2023-01-04T13:08:25;39.96;38.59;41.28;;
64077;Laerm;51039;49.696;10.808;2023-01-04T13:10:54;39.98;38.39;41.23;;
64077;Laerm;51039;49.696;10.808;2023-01-04T13:18:40;40.03;38.57;41.26;;
64077;Laerm;51039;49.696;10.808;2023-01-04T13:21:23;40.05;38.64;41.36;;
64077;Laerm;51039;49.696;10.808;2023-01-04T13:23:53;40.05;38.72;41.27;;
64077;Laerm;51039;49.696;10.808;2023-01-04T13:29:22;40.09;38.78;41.42;;
64077;Laerm;51039;49.696;10.808;2023-01-04T13:36:42;40.12;38.82;41.76;;
64077;Laerm;51039;49.696;10.808;2023-01-04T13:39:10;40.13;38.70;41.35;;
64077;Laerm;51039;49.696;10.808;2023-01-04T13:41:36;40.15;38.84;45.95;;
64077;Laerm;51039;49.696;10.808;2023-01-04T13:44:10;40.13;38.76;41.50;;
64077;Laerm;51039;49.696;10.808;2023-01-04T13:46:41;40.13;38.77;41.30;;
64077;Laerm;51039;49.696;10.808;2023-01-04T13:49:11;40.15;38.84;41.50;;
64077;Laerm;51039;49.696;10.808;2023-01-04T13:51:38;40.15;38.74;41.32;;
64077;Laerm;51039;49.696;10.808;2023-01-04T13:54:15;40.16;38.55;41.44;;
64077;Laerm;51039;49.696;10.808;2023-01-04T13:56:41;40.17;38.89;41.44;;
64077;Laerm;51039;49.696;10.808;2023-01-04T13:59:07;40.17;38.76;41.56;;
64077;Laerm;51039;49.696;10.808;2023-01-04T14:01:40;40.17;38.83;41.46;;
64077;Laerm;51039;49.696;10.808;2023-01-04T14:04:15;40.20;38.90;41.40;;
64077;Laerm;51039;49.696;10.808;2023-01-04T14:06:48;40.20;38.85;41.63;;
64077;Laerm;51039;49.696;10.808;2023-01-04T14:09:17;40.20;38.88;41.39;;
64077;Laerm;51039;49.696;10.808;2023-01-04T14:11:47;40.21;38.96;41.38;;
64077;Laerm;51039;49.696;10.808;2023-01-04T14:17:31;40.23;38.93;41.48;;
64077;Laerm;51039;49.696;10.808;2023-01-04T14:20:00;40.24;38.83;41.61;;
64077;Laerm;51039;49.696;10.808;2023-01-04T14:31:29;40.25;39.05;41.62;;
64077;Laerm;51039;49.696;10.808;2023-01-04T14:41:40;40.29;38.99;41.73;;
64077;Laerm;51039;49.696;10.808;2023-01-04T14:46:34;40.34;38.86;41.68;;
64077;Laerm;51039;49.696;10.808;2023-01-04T14:48:59;40.18;38.75;41.51;;
64077;Laerm;51039;49.696;10.808;2023-01-04T14:51:32;39.99;38.55;41.15;;
64077;Laerm;51039;49.696;10.808;2023-01-04T14:53:58;39.37;38.03;40.72;;
64077;Laerm;51039;49.696;10.808;2023-01-04T14:56:24;38.64;37.17;39.84;;
64077;Laerm;51039;49.696;10.808;2023-01-04T14:58:49;38.14;36.82;39.15;;
64077;Laerm;51039;49.696;10.808;2023-01-04T15:01:14;37.79;36.69;38.90;;
64077;Laerm;51039;49.696;10.808;2023-01-04T15:03:39;37.75;36.49;38.84;;
64077;Laerm;51039;49.696;10.808;2023-01-04T15:06:05;37.71;36.43;38.92;;
64077;Laerm;51039;49.696;10.808;2023-01-04T15:08:31;37.57;36.32;38.72;;
64077;Laerm;51039;49.696;10.808;2023-01-04T15:10:57;37.43;36.02;38.61;;
64077;Laerm;51039;49.696;10.808;2023-01-04T15:13:22;37.29;35.99;38.36;;
64077;Laerm;51039;49.696;10.808;2023-01-04T15:15:47;37.07;35.88;38.19;;
64077;Laerm;51039;49.696;10.808;2023-01-04T15:18:15;70.66;35.49;100.67;;
64077;Laerm;51039;49.696;10.808;2023-01-04T15:20:41;36.52;35.22;37.87;;
64077;Laerm;51039;49.696;10.808;2023-01-04T15:23:07;74.29;34.89;105.85;;
64077;Laerm;51039;49.696;10.808;2023-01-04T15:25:32;81.88;34.79;110.06;;
64077;Laerm;51039;49.696;10.808;2023-01-04T15:27:59;35.87;34.51;37.02;;
64077;Laerm;51039;49.696;10.808;2023-01-04T15:30:25;35.70;34.68;36.77;;
64077;Laerm;51039;49.696;10.808;2023-01-04T15:32:51;35.56;34.24;36.60;;
64077;Laerm;51039;49.696;10.808;2023-01-04T15:35:16;73.82;34.20;106.08;;
64077;Laerm;51039;49.696;10.808;2023-01-04T15:37:43;35.32;34.11;36.57;;